Time;durP1;ratioP1;P1;durP2;ratioP2;P2;SDS_P1;SDS_P2;PMS_P1;PMS_P2;Temp;Humidity;BMP_temperature;BMP_pressure;BME280_temperature;BME280_humidity;BME280_pressure;Samples;Min_cycle;Max_cycle;Signal;HPM_P1;HPM_P2
2023/11/20 00:00:46;;;;;;;1.30;0.93;;;9.10;99.90;;;;;;5128836;27;20701;-79
2023/11/20 00:03:14;;;;;;;2.10;1.07;;;9.20;99.90;;;;;;5121453;27;20719;-80
2023/11/20 00:05:41;;;;;;;2.07;0.63;;;9.10;99.90;;;;;;5116159;27;20624;-79
2023/11/20 00:08:08;;;;;;;1.00;0.80;;;9.10;99.90;;;;;;5119876;27;20985;-80
2023/11/20 00:10:38;;;;;;;1.40;1.30;;;9.10;99.90;;;;;;5121321;27;20781;-79
2023/11/20 00:13:06;;;;;;;2.53;0.80;;;9.00;99.90;;;;;;5121073;27;20619;-79
2023/11/20 00:15:33;;;;;;;10.63;1.83;;;9.00;99.90;;;;;;5137974;27;21182;-79
2023/11/20 00:17:59;;;;;;;1.40;0.87;;;9.00;99.90;;;;;;5118588;27;20618;-80
2023/11/20 00:20:28;;;;;;;2.10;1.00;;;9.00;99.90;;;;;;5139111;27;20719;-79
2023/11/20 00:22:55;;;;;;;3.20;1.60;;;9.00;99.90;;;;;;5140426;27;20630;-80
2023/11/20 00:25:22;;;;;;;1.10;0.83;;;8.90;99.90;;;;;;5136839;27;20739;-81
2023/11/20 00:27:49;;;;;;;3.27;0.90;;;9.00;99.90;;;;;;5142893;27;20627;-79
2023/11/20 00:30:16;;;;;;;3.00;0.80;;;9.00;99.90;;;;;;5138760;27;20657;-80
2023/11/20 00:32:42;;;;;;;2.53;1.30;;;9.00;99.90;;;;;;5142108;27;20622;-80
2023/11/20 00:35:14;;;;;;;0.63;0.63;;;9.00;99.90;;;;;;5132477;27;20628;-80
2023/11/20 00:37:42;;;;;;;2.40;1.23;;;9.00;99.90;;;;;;5140882;27;20659;-80
2023/11/20 00:40:11;;;;;;;0.80;0.80;;;9.00;99.90;;;;;;5141588;27;20619;-80
2023/11/20 00:42:37;;;;;;;1.23;0.63;;;9.00;99.90;;;;;;5137088;27;20621;-79
2023/11/20 00:45:05;;;;;;;3.00;1.40;;;9.00;99.90;;;;;;5138305;27;20615;-79
2023/11/20 00:47:32;;;;;;;6.90;1.27;;;9.00;99.90;;;;;;5134907;27;21166;-79
2023/11/20 00:49:59;;;;;;;0.77;0.77;;;9.00;99.90;;;;;;5127457;27;20779;-79
2023/11/20 00:52:26;;;;;;;2.93;1.53;;;9.00;99.90;;;;;;5123886;27;20633;-79
2023/11/20 00:54:54;;;;;;;4.00;1.47;;;8.90;99.90;;;;;;5129718;27;20620;-80
2023/11/20 00:57:21;;;;;;;1.37;1.20;;;8.90;99.90;;;;;;5135337;27;20974;-80
2023/11/20 00:59:49;;;;;;;1.10;1.00;;;8.80;99.90;;;;;;5131659;27;20615;-80
2023/11/20 01:02:16;;;;;;;2.00;0.80;;;8.80;99.90;;;;;;5126217;27;20627;-80
2023/11/20 01:04:43;;;;;;;6.03;1.40;;;8.70;99.90;;;;;;5132243;27;21059;-80
2023/11/20 01:07:09;;;;;;;2.50;0.90;;;8.60;99.90;;;;;;5131020;27;20638;-79
2023/11/20 01:09:36;;;;;;;0.90;0.80;;;8.50;99.90;;;;;;5130820;27;21017;-79
2023/11/20 01:12:05;;;;;;;5.83;1.27;;;8.50;99.90;;;;;;5128643;27;20611;-79
2023/11/20 01:14:32;;;;;;;3.43;2.13;;;8.40;99.90;;;;;;5128725;27;20726;-79
2023/11/20 01:16:59;;;;;;;1.90;0.73;;;8.50;99.90;;;;;;5132744;27;21196;-79
2023/11/20 01:19:25;;;;;;;2.50;0.93;;;8.40;99.90;;;;;;5139638;27;20634;-79
2023/11/20 01:21:52;;;;;;;2.80;1.23;;;8.40;99.90;;;;;;5142219;27;20626;-79
2023/11/20 01:24:19;;;;;;;1.10;0.83;;;8.40;99.90;;;;;;5136773;27;21210;-80
2023/11/20 01:26:45;;;;;;;8.30;1.10;;;8.40;99.90;;;;;;5132804;27;21049;-80
2023/11/20 01:29:14;;;;;;;3.90;1.37;;;8.30;99.90;;;;;;5144592;27;21000;-79
2023/11/20 01:31:40;;;;;;;0.73;0.67;;;8.40;99.90;;;;;;5131199;27;20737;-79
2023/11/20 01:34:07;;;;;;;4.00;0.80;;;8.40;99.90;;;;;;5122692;27;20614;-80
2023/11/20 01:36:34;;;;;;;2.90;1.23;;;8.40;99.90;;;;;;5128450;27;20631;-82
2023/11/20 01:39:01;;;;;;;4.77;1.13;;;8.40;99.90;;;;;;5137861;27;21049;-80
2023/11/20 01:41:29;;;;;;;1.40;1.30;;;8.40;99.90;;;;;;5139023;27;20630;-80
2023/11/20 01:43:56;;;;;;;2.37;0.80;;;8.40;99.90;;;;;;5134019;27;20619;-80
2023/11/20 01:46:27;;;;;;;4.23;1.13;;;8.40;99.90;;;;;;5128939;27;21170;-81
2023/11/20 01:48:55;;;;;;;3.17;1.23;;;8.40;99.90;;;;;;5127151;27;20726;-80
2023/11/20 01:51:23;;;;;;;5.30;2.20;;;8.50;99.90;;;;;;5129561;27;20709;-81
2023/11/20 01:53:50;;;;;;;2.97;1.10;;;8.40;99.90;;;;;;5124667;27;21087;-80
2023/11/20 01:56:17;;;;;;;2.30;0.77;;;8.50;99.90;;;;;;5133590;27;20627;-80
2023/11/20 01:58:44;;;;;;;3.80;1.83;;;8.50;99.90;;;;;;5129298;27;21042;-80
2023/11/20 02:01:11;;;;;;;1.13;0.70;;;8.50;99.90;;;;;;5127919;27;21159;-80
2023/11/20 02:03:39;;;;;;;8.50;1.00;;;8.60;99.90;;;;;;5128700;27;20621;-80
2023/11/20 02:06:06;;;;;;;1.57;1.27;;;8.60;99.90;;;;;;5129649;27;20619;-80
2023/11/20 02:08:33;;;;;;;4.13;1.80;;;8.70;99.90;;;;;;5128934;27;21139;-80
2023/11/20 02:11:00;;;;;;;1.03;0.93;;;8.70;99.90;;;;;;5128456;27;20665;-80
2023/11/20 02:13:28;;;;;;;3.23;2.00;;;8.70;99.90;;;;;;5128492;27;21031;-80
2023/11/20 02:15:57;;;;;;;1.10;1.00;;;8.70;99.90;;;;;;5127723;27;20635;-80
2023/11/20 02:18:29;;;;;;;1.83;1.30;;;8.70;99.90;;;;;;5143181;27;20622;-80
2023/11/20 02:20:58;;;;;;;3.10;1.10;;;8.80;99.90;;;;;;5133303;27;20614;-80
2023/11/20 02:23:26;;;;;;;2.47;1.40;;;8.80;99.90;;;;;;5137061;27;20628;-80
2023/11/20 02:26:08;;;;;;;5.10;1.13;;;8.90;99.90;;;;;;5143620;27;20631;-80
2023/11/20 02:28:40;;;;;;;1.37;0.93;;;8.90;99.90;;;;;;5142342;27;21197;-80
2023/11/20 02:31:09;;;;;;;3.63;1.80;;;8.90;99.90;;;;;;5130887;27;20665;-80
2023/11/20 02:33:37;;;;;;;1.63;1.20;;;8.90;99.90;;;;;;5142525;27;20663;-80
2023/11/20 02:36:05;;;;;;;0.93;0.70;;;8.90;99.90;;;;;;5145972;27;21101;-80
2023/11/20 02:38:33;;;;;;;1.70;1.27;;;8.80;99.90;;;;;;5144373;27;20631;-80
2023/11/20 02:41:01;;;;;;;1.23;1.00;;;8.90;99.90;;;;;;5143039;27;20688;-80
2023/11/20 02:43:29;;;;;;;1.30;0.80;;;8.90;99.90;;;;;;5139670;27;20641;-80
2023/11/20 02:45:57;;;;;;;1.87;0.80;;;8.90;99.90;;;;;;5137832;27;20635;-80
2023/11/20 02:48:26;;;;;;;3.83;1.37;;;8.80;99.90;;;;;;5142843;27;20626;-80
2023/11/20 02:50:53;;;;;;;3.90;1.00;;;8.80;99.90;;;;;;5127947;27;21467;-81
2023/11/20 02:53:20;;;;;;;2.40;1.67;;;8.80;99.90;;;;;;5135672;27;20659;-80
2023/11/20 02:55:46;;;;;;;2.13;1.93;;;8.90;99.90;;;;;;5135449;27;20987;-80
2023/11/20 02:58:13;;;;;;;2.50;1.50;;;8.80;99.90;;;;;;5132494;27;20628;-80
2023/11/20 03:00:40;;;;;;;3.07;1.50;;;8.90;99.90;;;;;;5131352;27;20650;-81
2023/11/20 03:03:07;;;;;;;1.73;1.30;;;8.80;99.90;;;;;;5135106;27;20647;-80
2023/11/20 03:05:35;;;;;;;3.80;1.13;;;8.80;99.90;;;;;;5127876;27;20751;-80
2023/11/20 03:08:02;;;;;;;1.03;0.90;;;8.80;99.90;;;;;;5131622;27;20732;-80
2023/11/20 03:10:29;;;;;;;1.17;0.90;;;8.70;99.90;;;;;;5126564;27;20653;-80
2023/11/20 03:12:56;;;;;;;0.70;0.70;;;8.70;99.90;;;;;;5122653;27;20612;-80
2023/11/20 03:15:23;;;;;;;2.90;0.80;;;8.70;99.90;;;;;;5130706;27;20622;-80
2023/11/20 03:17:50;;;;;;;1.73;1.20;;;8.70;99.90;;;;;;5126510;27;20621;-80
2023/11/20 03:20:18;;;;;;;2.97;1.10;;;8.70;99.90;;;;;;5136331;27;20715;-80
2023/11/20 03:22:47;;;;;;;1.30;1.03;;;8.70;99.90;;;;;;5139718;27;21567;-80
2023/11/20 03:25:14;;;;;;;2.30;1.23;;;8.70;99.90;;;;;;5138983;27;20602;-80
2023/11/20 03:27:44;;;;;;;1.83;1.17;;;8.80;99.90;;;;;;5139941;27;20644;-80
2023/11/20 03:30:12;;;;;;;2.20;0.87;;;8.80;99.90;;;;;;5146886;27;21230;-80
2023/11/20 03:32:39;;;;;;;0.83;0.80;;;8.80;99.90;;;;;;5144665;27;20619;-80
2023/11/20 03:35:09;;;;;;;0.57;0.57;;;8.90;99.90;;;;;;5145720;27;20984;-80
2023/11/20 03:37:37;;;;;;;2.00;0.93;;;8.80;99.90;;;;;;5143522;27;20619;-80
2023/11/20 03:40:08;;;;;;;2.30;1.10;;;8.90;99.90;;;;;;5136923;27;21018;-80
2023/11/20 03:42:36;;;;;;;6.33;1.30;;;9.00;99.90;;;;;;5142041;27;21330;-80
2023/11/20 03:45:04;;;;;;;3.43;1.20;;;9.00;99.90;;;;;;5139670;27;21086;-80
2023/11/20 03:47:33;;;;;;;1.37;0.67;;;9.20;99.90;;;;;;5141740;27;21205;-80
2023/11/20 03:50:01;;;;;;;2.67;1.70;;;9.30;99.90;;;;;;5140415;27;23076;-80
2023/11/20 03:52:29;;;;;;;2.10;1.00;;;9.30;99.90;;;;;;5135403;27;20623;-80
2023/11/20 03:54:56;;;;;;;3.03;1.30;;;9.30;99.90;;;;;;5139503;27;20625;-80
2023/11/20 03:57:24;;;;;;;2.67;1.13;;;9.30;99.90;;;;;;5141363;27;20988;-81
2023/11/20 03:59:50;;;;;;;4.33;1.50;;;9.40;99.90;;;;;;5138880;27;20623;-80
2023/11/20 04:02:17;;;;;;;1.33;0.50;;;9.40;99.90;;;;;;5140984;27;20621;-81
2023/11/20 04:04:44;;;;;;;3.73;1.27;;;9.40;99.90;;;;;;5141831;27;20946;-80
2023/11/20 04:07:11;;;;;;;2.37;1.00;;;9.50;99.90;;;;;;5140536;27;21225;-80
2023/11/20 04:09:38;;;;;;;3.50;1.50;;;9.50;99.90;;;;;;5139828;27;21054;-80
2023/11/20 04:12:06;;;;;;;1.10;0.80;;;9.60;99.90;;;;;;5137677;27;20770;-80
2023/11/20 04:14:34;;;;;;;1.73;1.17;;;9.50;99.90;;;;;;5136827;27;20622;-80
2023/11/20 04:17:00;;;;;;;2.20;1.27;;;9.50;99.90;;;;;;5127029;27;20641;-80
2023/11/20 04:19:27;;;;;;;2.23;1.40;;;9.40;99.90;;;;;;5137356;27;20617;-80
2023/11/20 04:21:54;;;;;;;3.90;0.73;;;9.40;99.90;;;;;;5132185;27;20630;-80
2023/11/20 04:24:21;;;;;;;2.10;0.70;;;9.30;99.90;;;;;;5128037;27;20627;-80
2023/11/20 04:26:47;;;;;;;4.23;1.17;;;9.30;99.90;;;;;;5123837;27;20636;-80
2023/11/20 04:29:14;;;;;;;1.53;1.20;;;9.30;99.90;;;;;;5124283;27;20623;-80
2023/11/20 04:31:42;;;;;;;3.00;1.10;;;9.20;99.90;;;;;;5132444;27;21073;-80
2023/11/20 04:34:09;;;;;;;1.23;1.00;;;9.10;99.90;;;;;;5129603;27;20627;-80
2023/11/20 04:36:36;;;;;;;10.70;1.37;;;9.10;99.90;;;;;;5121323;27;21135;-80
2023/11/20 04:39:03;;;;;;;1.57;1.47;;;9.10;99.90;;;;;;5127510;27;21242;-80
2023/11/20 04:41:31;;;;;;;2.70;1.17;;;9.10;99.90;;;;;;5130101;27;20627;-80
2023/11/20 04:43:58;;;;;;;0.80;0.80;;;9.00;99.90;;;;;;5146111;27;21103;-80
2023/11/20 04:46:25;;;;;;;2.60;1.30;;;8.90;99.90;;;;;;5139123;27;20966;-80
2023/11/20 04:48:53;;;;;;;1.50;0.83;;;8.90;99.90;;;;;;5142833;27;21269;-80
2023/11/20 04:51:20;;;;;;;7.53;1.10;;;8.90;99.90;;;;;;5138885;27;20669;-80
2023/11/20 04:53:47;;;;;;;3.40;1.33;;;8.90;99.90;;;;;;5138120;27;20733;-80
2023/11/20 04:56:14;;;;;;;3.23;1.20;;;8.90;99.90;;;;;;5144857;27;20614;-80
2023/11/20 04:58:41;;;;;;;4.30;1.60;;;8.90;99.90;;;;;;5140499;27;20622;-80
2023/11/20 05:01:07;;;;;;;1.10;1.00;;;8.90;99.90;;;;;;5141842;27;20615;-80
2023/11/20 05:03:37;;;;;;;1.60;1.03;;;9.00;99.90;;;;;;5139002;27;20622;-80
2023/11/20 05:06:07;;;;;;;2.33;1.20;;;9.00;99.90;;;;;;5139761;27;21194;-81
2023/11/20 05:08:34;;;;;;;3.80;1.40;;;9.10;99.90;;;;;;5139791;27;21188;-80
2023/11/20 05:11:00;;;;;;;3.40;0.90;;;9.20;99.90;;;;;;5136817;27;20662;-80
2023/11/20 05:13:27;;;;;;;0.77;0.77;;;9.20;99.90;;;;;;5139593;27;20626;-80
2023/11/20 05:15:54;;;;;;;1.50;0.97;;;9.20;99.90;;;;;;5126445;27;20620;-80
2023/11/20 05:18:21;;;;;;;1.23;1.13;;;9.10;99.90;;;;;;5136070;27;20619;-80
2023/11/20 05:20:48;;;;;;;1.10;0.83;;;9.30;99.90;;;;;;5132256;27;20628;-80
2023/11/20 05:23:16;;;;;;;2.33;1.10;;;9.20;99.90;;;;;;5131671;27;20630;-80
2023/11/20 05:25:42;;;;;;;2.30;1.00;;;9.30;99.90;;;;;;5127520;27;20749;-80
2023/11/20 05:28:10;;;;;;;1.43;1.03;;;9.40;99.90;;;;;;5131516;27;20632;-80
2023/11/20 05:30:38;;;;;;;3.40;1.60;;;9.40;99.90;;;;;;5132321;27;20679;-80
2023/11/20 05:33:05;;;;;;;2.07;0.97;;;9.30;99.90;;;;;;5130449;27;20620;-80
2023/11/20 05:35:33;;;;;;;2.70;1.60;;;9.30;99.90;;;;;;5130090;27;20619;-80
2023/11/20 05:37:59;;;;;;;2.20;1.37;;;9.30;99.90;;;;;;5128309;27;21178;-81
2023/11/20 05:40:27;;;;;;;1.33;1.20;;;9.30;99.90;;;;;;5125172;27;20978;-80
2023/11/20 05:42:54;;;;;;;1.50;1.30;;;9.30;99.90;;;;;;5139048;27;20721;-80
2023/11/20 05:45:21;;;;;;;2.73;1.00;;;9.20;99.90;;;;;;5147898;27;20628;-78
2023/11/20 05:47:48;;;;;;;6.70;1.23;;;9.30;99.90;;;;;;5138309;27;20703;-78
2023/11/20 05:50:15;;;;;;;5.37;1.20;;;9.40;99.90;;;;;;5132011;27;21190;-78
2023/11/20 05:52:42;;;;;;;1.80;0.93;;;9.40;99.90;;;;;;5131375;27;21345;-79
2023/11/20 05:55:09;;;;;;;1.50;0.90;;;9.40;99.90;;;;;;5132469;27;20615;-79
2023/11/20 05:57:38;;;;;;;1.70;0.43;;;9.40;99.90;;;;;;5134391;27;20948;-80
2023/11/20 06:00:08;;;;;;;6.23;1.10;;;9.50;99.90;;;;;;5137037;27;20651;-78
2023/11/20 06:02:35;;;;;;;2.00;1.23;;;9.50;99.90;;;;;;5126647;27;21032;-79
2023/11/20 06:05:03;;;;;;;1.90;1.13;;;9.50;99.90;;;;;;5139778;27;20634;-74
2023/11/20 06:07:30;;;;;;;1.90;1.00;;;9.50;99.90;;;;;;5131569;27;20674;-75
2023/11/20 06:09:57;;;;;;;2.10;0.83;;;9.60;99.90;;;;;;5131991;27;20729;-76
2023/11/20 06:12:24;;;;;;;2.90;0.87;;;9.60;99.90;;;;;;5139695;27;20664;-74
2023/11/20 06:14:52;;;;;;;3.07;0.73;;;9.60;99.90;;;;;;5132405;27;20633;-74
2023/11/20 06:17:20;;;;;;;2.97;0.93;;;9.60;99.90;;;;;;5131848;27;21050;-74
2023/11/20 06:19:47;;;;;;;2.93;1.10;;;9.70;99.90;;;;;;5132894;27;20723;-73
2023/11/20 06:22:14;;;;;;;1.30;1.00;;;9.70;99.90;;;;;;5131824;27;20626;-75
2023/11/20 06:24:41;;;;;;;5.40;1.90;;;9.60;99.90;;;;;;5125615;27;21245;-75
2023/11/20 06:27:08;;;;;;;2.00;1.23;;;9.60;99.90;;;;;;5132063;27;20627;-76
2023/11/20 06:29:35;;;;;;;7.07;0.80;;;9.60;99.90;;;;;;5132186;27;20641;-75
2023/11/20 06:32:06;;;;;;;3.35;1.60;;;9.60;99.90;;;;;;5129250;27;20794;-87
2023/11/20 06:34:34;;;;;;;1.00;0.73;;;9.50;99.90;;;;;;5130613;27;20282;-85
2023/11/20 06:37:01;;;;;;;0.40;0.30;;;9.50;99.90;;;;;;5121004;27;20623;-86
2023/11/20 06:39:27;;;;;;;1.77;0.90;;;9.50;99.90;;;;;;5123906;27;21231;-87
2023/11/20 06:41:54;;;;;;;1.53;0.90;;;9.60;99.90;;;;;;5114696;27;20609;-84
2023/11/20 06:44:21;;;;;;;0.80;0.70;;;9.60;99.90;;;;;;5129650;27;20629;-87
2023/11/20 06:46:48;;;;;;;1.00;0.93;;;9.60;99.90;;;;;;5146015;27;20614;-87
2023/11/20 06:49:16;;;;;;;5.37;1.13;;;9.60;99.90;;;;;;5137454;27;20731;-87
2023/11/20 06:51:44;;;;;;;1.57;0.60;;;9.60;99.90;;;;;;5138583;27;20721;-86
2023/11/20 06:54:11;;;;;;;5.80;1.13;;;9.60;99.90;;;;;;5135309;27;20619;-85
2023/11/20 06:56:38;;;;;;;5.40;0.97;;;9.60;99.90;;;;;;5138332;27;20618;-86
2023/11/20 06:59:05;;;;;;;0.67;0.50;;;9.60;99.90;;;;;;5139939;27;20671;-86
2023/11/20 07:01:32;;;;;;;1.10;0.73;;;9.60;99.90;;;;;;5131116;27;20702;-86
2023/11/20 07:03:59;;;;;;;1.77;0.60;;;9.60;99.90;;;;;;5136579;27;20646;-86
2023/11/20 07:06:27;;;;;;;2.63;0.80;;;9.60;99.90;;;;;;5131325;27;20636;-85
2023/11/20 07:08:54;;;;;;;1.27;0.80;;;9.60;99.90;;;;;;5132590;27;20624;-86
2023/11/20 07:11:21;;;;;;;4.03;1.07;;;9.60;99.90;;;;;;5129223;27;20676;-86
2023/11/20 07:13:48;;;;;;;5.53;1.77;;;9.70;99.90;;;;;;5133743;27;20703;-87
2023/11/20 07:16:15;;;;;;;3.13;1.10;;;9.80;99.60;;;;;;5132206;27;20627;-87
2023/11/20 07:18:42;;;;;;;1.57;0.80;;;9.70;99.80;;;;;;5126089;27;20657;-86
2023/11/20 07:21:09;;;;;;;1.17;1.07;;;9.80;99.50;;;;;;5128056;27;20632;-86
2023/11/20 07:23:38;;;;;;;2.27;1.03;;;9.80;99.70;;;;;;5125370;27;20749;-87
2023/11/20 07:26:05;;;;;;;2.90;1.10;;;9.80;99.90;;;;;;5130793;27;20663;-86
2023/11/20 07:28:33;;;;;;;2.60;0.87;;;9.80;99.90;;;;;;5130012;27;20611;-86
2023/11/20 07:31:00;;;;;;;3.90;0.70;;;9.90;99.70;;;;;;5133703;27;20845;-86
2023/11/20 07:33:27;;;;;;;1.83;1.37;;;9.90;99.30;;;;;;5133816;27;20615;-86
2023/11/20 07:35:54;;;;;;;1.00;0.90;;;9.90;99.40;;;;;;5132027;27;20719;-87
2023/11/20 07:38:21;;;;;;;1.03;0.77;;;9.90;99.90;;;;;;5131321;27;20640;-86
2023/11/20 07:40:50;;;;;;;2.53;1.50;;;9.90;99.80;;;;;;5124873;27;20622;-87
2023/11/20 07:43:17;;;;;;;2.10;1.57;;;9.90;99.80;;;;;;5121387;27;21011;-86
2023/11/20 07:45:44;;;;;;;3.03;1.10;;;9.90;99.70;;;;;;5147583;27;20749;-86
2023/11/20 07:48:10;;;;;;;1.90;0.70;;;9.90;99.60;;;;;;5148991;27;20835;-87
2023/11/20 07:50:39;;;;;;;1.90;0.90;;;9.90;99.40;;;;;;5138792;27;20629;-87
2023/11/20 07:53:06;;;;;;;3.47;0.80;;;10.00;98.70;;;;;;5142032;27;20665;-87
2023/11/20 07:55:32;;;;;;;2.60;2.40;;;10.00;99.70;;;;;;5146711;27;20823;-86
2023/11/20 07:58:01;;;;;;;1.87;0.67;;;10.00;99.30;;;;;;5145049;27;20697;-87
2023/11/20 08:00:27;;;;;;;1.20;1.03;;;10.10;99.30;;;;;;5143504;27;20614;-87
2023/11/20 08:02:54;;;;;;;2.43;1.10;;;10.10;98.40;;;;;;5142621;27;20640;-87
2023/11/20 08:05:21;;;;;;;1.33;1.03;;;10.10;99.00;;;;;;5144094;27;20687;-86
2023/11/20 08:07:48;;;;;;;2.40;0.70;;;10.20;99.40;;;;;;5140993;27;20623;-86
2023/11/20 08:10:18;;;;;;;1.37;1.27;;;10.20;99.80;;;;;;5141819;27;20620;-86
2023/11/20 08:12:46;;;;;;;1.80;1.00;;;10.20;99.90;;;;;;5139580;27;21032;-86
2023/11/20 08:15:14;;;;;;;4.50;1.43;;;10.20;99.50;;;;;;5138815;27;20973;-86
2023/11/20 08:17:41;;;;;;;5.20;1.03;;;10.20;99.80;;;;;;5132248;27;20705;-87
2023/11/20 08:20:09;;;;;;;0.87;0.73;;;10.20;99.20;;;;;;5134570;27;20628;-87
2023/11/20 08:22:37;;;;;;;1.30;0.80;;;10.30;99.50;;;;;;5138070;27;20623;-87
2023/11/20 08:25:04;;;;;;;1.03;0.93;;;10.40;99.80;;;;;;5127453;27;20725;-86
2023/11/20 08:27:31;;;;;;;1.90;1.07;;;10.40;99.90;;;;;;5136332;27;20660;-87
2023/11/20 08:29:58;;;;;;;6.00;1.77;;;10.40;99.90;;;;;;5133377;27;20705;-84
2023/11/20 08:32:27;;;;;;;4.10;1.50;;;10.40;99.90;;;;;;5133226;27;20673;-85
2023/11/20 08:34:53;;;;;;;1.90;0.70;;;10.30;99.90;;;;;;5124836;27;20641;-83
2023/11/20 08:37:20;;;;;;;6.13;2.10;;;10.40;99.90;;;;;;5131077;27;20844;-86
2023/11/20 08:39:48;;;;;;;2.03;1.53;;;10.50;99.90;;;;;;5128695;27;20727;-85
2023/11/20 08:42:14;;;;;;;3.60;0.63;;;10.50;99.90;;;;;;5122698;27;21196;-86
2023/11/20 08:44:41;;;;;;;4.30;1.57;;;10.40;99.90;;;;;;5127541;27;20749;-86
2023/11/20 08:47:08;;;;;;;1.60;0.87;;;10.50;99.90;;;;;;5142140;27;20706;-86
2023/11/20 08:49:37;;;;;;;1.80;0.90;;;10.50;99.90;;;;;;5139737;27;21282;-86
2023/11/20 08:52:05;;;;;;;2.20;1.07;;;10.50;99.90;;;;;;5146611;27;20652;-85
2023/11/20 08:54:32;;;;;;;3.87;1.90;;;10.50;99.90;;;;;;5138514;27;20612;-86
2023/11/20 08:56:59;;;;;;;3.70;1.37;;;10.50;99.90;;;;;;5145229;27;21268;-87
2023/11/20 08:59:26;;;;;;;2.73;1.20;;;10.50;99.90;;;;;;5143209;27;20657;-86
2023/11/20 09:01:53;;;;;;;5.60;1.20;;;10.50;99.90;;;;;;5142265;27;20642;-86
2023/11/20 09:04:21;;;;;;;2.10;1.17;;;10.50;99.90;;;;;;5143698;27;20621;-86
2023/11/20 09:06:49;;;;;;;1.60;0.97;;;10.50;99.90;;;;;;5140369;27;20636;-86
2023/11/20 09:09:16;;;;;;;2.70;1.30;;;10.60;99.90;;;;;;5141203;27;20617;-86
2023/11/20 09:11:44;;;;;;;0.90;0.90;;;10.60;99.90;;;;;;5139691;27;20739;-87
2023/11/20 09:14:12;;;;;;;3.70;1.50;;;10.70;99.90;;;;;;5138923;27;20630;-86
2023/11/20 09:16:39;;;;;;;1.93;1.20;;;10.60;99.90;;;;;;5131467;27;20685;-86
2023/11/20 09:19:06;;;;;;;0.60;0.60;;;10.60;99.90;;;;;;5135421;27;21215;-85
2023/11/20 09:21:33;;;;;;;1.83;0.90;;;10.60;99.90;;;;;;5125036;27;20652;-87
2023/11/20 09:24:01;;;;;;;6.43;1.13;;;10.60;99.90;;;;;;5121704;27;20722;-86
2023/11/20 09:26:28;;;;;;;1.67;1.33;;;10.80;99.90;;;;;;5126895;27;20664;-86
2023/11/20 09:28:55;;;;;;;0.73;0.53;;;10.80;99.90;;;;;;5129007;27;21257;-86
2023/11/20 09:31:22;;;;;;;2.23;1.37;;;10.90;99.90;;;;;;5132991;27;20626;-86
2023/11/20 09:33:50;;;;;;;2.13;1.17;;;10.90;99.90;;;;;;5127719;27;20672;-86
2023/11/20 09:36:17;;;;;;;7.10;1.33;;;10.80;99.90;;;;;;5113223;27;20600;-87
2023/11/20 09:38:45;;;;;;;1.50;1.07;;;10.80;99.90;;;;;;5127150;27;20621;-86
2023/11/20 09:41:14;;;;;;;2.50;2.03;;;10.70;99.90;;;;;;5129228;27;20626;-86
2023/11/20 09:43:43;;;;;;;1.63;1.30;;;10.80;99.90;;;;;;5117851;27;20630;-87
2023/11/20 09:46:13;;;;;;;1.40;1.10;;;10.80;99.90;;;;;;5121111;27;20768;-85
2023/11/20 09:48:40;;;;;;;3.50;0.90;;;11.00;99.90;;;;;;5128402;27;20610;-85
2023/11/20 09:51:10;;;;;;;1.60;1.00;;;11.10;99.90;;;;;;5128477;27;20637;-85
2023/11/20 09:53:38;;;;;;;2.67;1.10;;;11.10;99.90;;;;;;5139447;27;20656;-86
2023/11/20 09:56:07;;;;;;;1.23;1.10;;;11.30;99.90;;;;;;5129598;27;20686;-85
2023/11/20 09:58:36;;;;;;;2.87;1.37;;;11.20;99.70;;;;;;5142174;27;20625;-85
2023/11/20 10:01:06;;;;;;;3.80;0.93;;;11.10;99.60;;;;;;5141549;27;20627;-85
2023/11/20 10:03:37;;;;;;;3.80;1.30;;;11.00;99.70;;;;;;5142997;27;20691;-87
2023/11/20 10:06:07;;;;;;;0.93;0.93;;;10.90;99.90;;;;;;5141367;27;20633;-85
2023/11/20 10:08:36;;;;;;;1.17;0.83;;;10.80;99.60;;;;;;5136170;27;20629;-85
2023/11/20 10:11:04;;;;;;;1.57;0.70;;;10.80;99.60;;;;;;5139082;27;20617;-86
2023/11/20 10:13:31;;;;;;;2.70;1.40;;;10.80;99.80;;;;;;5140254;27;20768;-83
2023/11/20 10:16:00;;;;;;;2.00;1.00;;;10.90;99.90;;;;;;5128184;27;20753;-86
2023/11/20 10:18:28;;;;;;;0.67;0.53;;;11.10;99.90;;;;;;5130672;27;20695;-85
2023/11/20 10:20:57;;;;;;;1.03;1.03;;;11.30;99.30;;;;;;5133486;27;20952;-86
2023/11/20 10:23:24;;;;;;;2.93;0.90;;;11.30;99.20;;;;;;5135567;27;20655;-85
2023/11/20 10:25:51;;;;;;;3.47;1.43;;;11.50;98.80;;;;;;5124436;27;20762;-85
2023/11/20 10:28:21;;;;;;;1.00;1.00;;;11.50;98.60;;;;;;5120448;27;20658;-86
2023/11/20 10:30:49;;;;;;;3.03;1.10;;;11.60;98.40;;;;;;5132187;27;20753;-85
2023/11/20 10:33:18;;;;;;;2.33;1.10;;;11.60;98.70;;;;;;5131314;27;20705;-85
2023/11/20 10:35:45;;;;;;;3.10;0.93;;;11.60;98.70;;;;;;5130746;27;20988;-85
2023/11/20 10:38:12;;;;;;;1.20;1.10;;;11.70;98.80;;;;;;5129513;27;20619;-86
2023/11/20 10:40:41;;;;;;;4.13;0.73;;;11.60;97.90;;;;;;5121895;27;20627;-85
2023/11/20 10:43:09;;;;;;;1.83;0.80;;;11.80;97.80;;;;;;5112710;27;21179;-85
2023/11/20 10:45:37;;;;;;;9.67;0.77;;;11.90;97.00;;;;;;5124684;27;20628;-85
2023/11/20 10:48:07;;;;;;;0.90;0.80;;;11.90;97.30;;;;;;5124855;27;20645;-85
2023/11/20 10:50:36;;;;;;;1.37;0.90;;;11.90;96.60;;;;;;5135250;27;20610;-86
2023/11/20 10:53:06;;;;;;;1.20;1.10;;;11.80;97.60;;;;;;5126499;27;20723;-85
2023/11/20 10:55:40;;;;;;;2.00;0.87;;;11.70;96.50;;;;;;5147346;27;20753;-85
2023/11/20 10:58:09;;;;;;;0.90;0.77;;;11.80;98.50;;;;;;5134167;27;20615;-85
2023/11/20 11:00:37;;;;;;;2.23;1.30;;;11.60;97.60;;;;;;5135538;27;21373;-78
2023/11/20 11:03:06;;;;;;;3.60;0.87;;;11.60;97.80;;;;;;5130597;27;20753;-78
2023/11/20 11:05:37;;;;;;;0.90;0.63;;;11.60;97.50;;;;;;5132510;27;20733;-78
2023/11/20 11:08:07;;;;;;;1.93;1.03;;;11.60;97.30;;;;;;5143343;27;20638;-78
2023/11/20 11:10:36;;;;;;;1.43;0.90;;;11.50;96.70;;;;;;5140549;27;20722;-78
2023/11/20 11:13:04;;;;;;;0.60;0.60;;;11.50;97.40;;;;;;5132760;27;20663;-75
2023/11/20 11:15:32;;;;;;;0.67;0.60;;;11.50;97.10;;;;;;5143142;27;20622;-76
2023/11/20 11:18:04;;;;;;;5.30;1.10;;;11.50;96.70;;;;;;5130616;27;20620;-77
2023/11/20 11:20:41;;;;;;;2.63;0.90;;;11.40;96.00;;;;;;5132614;27;20662;-77
2023/11/20 11:23:09;;;;;;;0.67;0.67;;;11.50;97.70;;;;;;5132601;27;20982;-78
2023/11/20 11:25:40;;;;;;;0.70;0.67;;;11.40;98.70;;;;;;5134337;27;20618;-77
2023/11/20 11:28:13;;;;;;;0.43;0.43;;;11.30;99.00;;;;;;5135659;27;20630;-76
2023/11/20 11:30:44;;;;;;;1.77;0.60;;;11.30;99.30;;;;;;5132427;27;21217;-75
2023/11/20 11:33:40;;;;;;;0.73;0.57;;;11.10;99.20;;;;;;5128440;27;20703;-75
2023/11/20 11:36:30;;;;;;;0.80;0.50;;;11.00;98.80;;;;;;5128803;27;20630;-75
2023/11/20 11:39:13;;;;;;;1.40;1.30;;;10.90;99.10;;;;;;5125438;27;20721;-75
2023/11/20 11:41:58;;;;;;;0.50;0.50;;;10.80;99.40;;;;;;5130014;27;20629;-75
2023/11/20 11:44:40;;;;;;;1.13;0.50;;;10.80;99.90;;;;;;5126890;27;20980;-80
2023/11/20 11:47:09;;;;;;;0.87;0.53;;;10.60;99.90;;;;;;5121476;27;20643;-78
2023/11/20 11:49:37;;;;;;;0.87;0.50;;;10.50;99.90;;;;;;5116792;27;21161;-78
2023/11/20 11:52:07;;;;;;;2.00;0.43;;;10.40;99.90;;;;;;5149669;27;20637;-81
2023/11/20 11:54:34;;;;;;;0.50;0.30;;;10.30;99.90;;;;;;5143202;27;20710;-79
2023/11/20 11:57:08;;;;;;;0.50;0.30;;;10.30;99.90;;;;;;5135438;27;20625;-78
2023/11/20 11:59:40;;;;;;;0.43;0.40;;;10.10;99.90;;;;;;5142729;27;20624;-77
2023/11/20 12:02:08;;;;;;;0.40;0.40;;;10.20;99.90;;;;;;5135410;27;21007;-76
2023/11/20 12:05:07;;;;;;;1.33;0.70;;;10.20;99.90;;;;;;5144419;27;20649;-77
2023/11/20 12:08:01;;;;;;;0.53;0.53;;;10.30;99.90;;;;;;5129401;27;20735;-78
2023/11/20 12:10:50;;;;;;;0.47;0.47;;;10.30;99.90;;;;;;5126130;27;21257;-77
2023/11/20 12:13:18;;;;;;;0.40;0.40;;;10.40;99.90;;;;;;5136292;27;21041;-78
2023/11/20 12:15:47;;;;;;;0.40;0.30;;;10.40;99.90;;;;;;5138386;27;20663;-77
2023/11/20 12:18:16;;;;;;;1.07;0.90;;;10.40;99.90;;;;;;5138651;27;21165;-78
2023/11/20 12:21:01;;;;;;;0.57;0.57;;;10.50;99.90;;;;;;5138079;27;20620;-78
2023/11/20 12:23:31;;;;;;;4.13;0.80;;;10.60;99.90;;;;;;5139316;27;21038;-78
2023/11/20 12:25:59;;;;;;;1.50;0.60;;;10.70;99.90;;;;;;5121004;27;20670;-78
2023/11/20 12:28:29;;;;;;;1.17;0.60;;;10.70;99.90;;;;;;5130969;27;20615;-78
2023/11/20 12:30:56;;;;;;;0.40;0.30;;;10.70;99.90;;;;;;5131252;27;20754;-78
2023/11/20 12:33:23;;;;;;;1.77;0.70;;;10.70;99.90;;;;;;5126120;27;21071;-78
2023/11/20 12:35:52;;;;;;;0.60;0.60;;;10.80;99.90;;;;;;5118820;27;20626;-78
2023/11/20 12:38:19;;;;;;;0.60;0.53;;;10.80;99.90;;;;;;5115476;27;20688;-79
2023/11/20 12:40:51;;;;;;;2.33;0.50;;;10.90;99.90;;;;;;5123303;27;21130;-78
2023/11/20 12:43:21;;;;;;;1.53;0.53;;;10.90;99.90;;;;;;5129164;27;20676;-78
2023/11/20 12:45:48;;;;;;;1.53;0.90;;;11.00;99.90;;;;;;5127381;27;20697;-78
2023/11/20 12:48:15;;;;;;;3.20;1.20;;;11.00;99.90;;;;;;5118737;27;20650;-78
2023/11/20 12:50:49;;;;;;;0.73;0.73;;;11.00;99.90;;;;;;5120231;27;20639;-78
2023/11/20 12:53:17;;;;;;;2.20;1.27;;;11.20;99.90;;;;;;5134541;27;20726;-79
2023/11/20 12:55:45;;;;;;;0.80;0.80;;;11.00;99.90;;;;;;5139293;27;20629;-78
2023/11/20 12:58:13;;;;;;;1.20;0.60;;;10.90;99.90;;;;;;5137941;27;21194;-78